Mozajsk, Russia
Current Conditions -  °F | °C
As of 3:30 AM on Thursday 23 Oct 2014 (Local Time) from UUWW Reporting Station
Light Snow Light Snow  
Wind Chill: -2°   Ceiling: 1600
Heat Index: 14°   Visibility: 6mi
Dew Point:   Wind: 16mph
Humidity: 79%   Direction: 330°NNW
Pressure: 30.15"   Gusts: NA
Location:  55.49°N, 36.04°E
Report Text: UUWW 230030Z 33007MPS 9999 -SN BKN016 M10/M13 Q1021 24420150NOSIG
Loading
Personal Weather Stations






























Interactive Weather Map
Tropical Storm Tracking
New forecast layout! Learn more

10-Day Weather Forecast

Advertisements
Track Severe Weather on mobile